Terminal Aerodrome Forecast
Issued by NWS

Home | Current Version | Previous Version | Text Only | Print | Product List | Glossary Off
Versions: 1 2 3 4 5 6 7 8 9 10 11 12 13 14 15 16 17 18

000
FTUS43 KGRB 271947 AAA
TAFCWA
TAF AMD
KCWA 271947Z 2720/2818 26009G16KT P6SM SCT028
     FM280000 26007KT P6SM SCT035 SCT080
     FM280500 VRB03KT 4SM BR SKC
      TEMPO 2807/2811 1/2SM FG VV002
     FM281500 19008KT P6SM SCT070=

USA.gov is the U.S. government's official web portal to all federal, state and local government web resources and services.